sensor_id;sensor_type;location;lat;lon;timestamp;pressure;altitude;pressure_sealevel;temperature;humidity
43125;BME280;49182;50.788;7.318;2023-03-22T00:01:23;100490.16;;;6.42;100.00
43125;BME280;49182;50.788;7.318;2023-03-22T00:03:50;100487.03;;;6.37;100.00
43125;BME280;49182;50.788;7.318;2023-03-22T00:06:17;100468.88;;;6.23;100.00
43125;BME280;49182;50.788;7.318;2023-03-22T00:08:47;100480.50;;;6.43;100.00
43125;BME280;49182;50.788;7.318;2023-03-22T00:11:14;100485.16;;;6.39;100.00
43125;BME280;49182;50.788;7.318;2023-03-22T00:13:42;100490.78;;;6.46;100.00
43125;BME280;49182;50.788;7.318;2023-03-22T00:16:09;100492.69;;;6.44;100.00
43125;BME280;49182;50.788;7.318;2023-03-22T00:18:36;100479.06;;;6.39;100.00
43125;BME280;49182;50.788;7.318;2023-03-22T00:21:03;100492.78;;;6.42;100.00
43125;BME280;49182;50.788;7.318;2023-03-22T00:23:30;100483.03;;;6.44;100.00
43125;BME280;49182;50.788;7.318;2023-03-22T00:25:57;100434.66;;;6.25;100.00
43125;BME280;49182;50.788;7.318;2023-03-22T00:28:23;100478.53;;;6.46;100.00
43125;BME280;49182;50.788;7.318;2023-03-22T00:30:54;100456.25;;;6.28;100.00
43125;BME280;49182;50.788;7.318;2023-03-22T00:33:21;100472.66;;;6.43;100.00
43125;BME280;49182;50.788;7.318;2023-03-22T00:35:49;100465.72;;;6.42;100.00
43125;BME280;49182;50.788;7.318;2023-03-22T00:38:16;100446.59;;;6.29;100.00
43125;BME280;49182;50.788;7.318;2023-03-22T00:40:43;100436.03;;;6.18;100.00
43125;BME280;49182;50.788;7.318;2023-03-22T00:43:10;100434.66;;;6.25;100.00
43125;BME280;49182;50.788;7.318;2023-03-22T00:45:36;100462.16;;;6.43;100.00
43125;BME280;49182;50.788;7.318;2023-03-22T00:48:05;100452.00;;;6.38;100.00
43125;BME280;49182;50.788;7.318;2023-03-22T00:50:32;100452.91;;;6.50;100.00
43125;BME280;49182;50.788;7.318;2023-03-22T00:52:59;100453.00;;;6.48;100.00
43125;BME280;49182;50.788;7.318;2023-03-22T00:55:25;100447.72;;;6.37;100.00
43125;BME280;49182;50.788;7.318;2023-03-22T00:57:52;100413.47;;;6.28;100.00
43125;BME280;49182;50.788;7.318;2023-03-22T01:00:19;100442.25;;;6.40;100.00
43125;BME280;49182;50.788;7.318;2023-03-22T01:02:46;100428.41;;;6.38;100.00
43125;BME280;49182;50.788;7.318;2023-03-22T01:05:18;100432.22;;;6.34;100.00
43125;BME280;49182;50.788;7.318;2023-03-22T01:07:45;100429.81;;;6.31;100.00
43125;BME280;49182;50.788;7.318;2023-03-22T01:10:12;100421.09;;;6.31;100.00
43125;BME280;49182;50.788;7.318;2023-03-22T01:12:38;100401.75;;;6.21;100.00
43125;BME280;49182;50.788;7.318;2023-03-22T01:15:06;100416.78;;;6.30;100.00
43125;BME280;49182;50.788;7.318;2023-03-22T01:17:33;100415.00;;;6.30;100.00
43125;BME280;49182;50.788;7.318;2023-03-22T01:20:00;100417.88;;;6.27;100.00
43125;BME280;49182;50.788;7.318;2023-03-22T01:22:29;100391.09;;;6.11;100.00
43125;BME280;49182;50.788;7.318;2023-03-22T01:24:55;100410.22;;;6.24;100.00
43125;BME280;49182;50.788;7.318;2023-03-22T01:27:22;100409.06;;;6.28;100.00
43125;BME280;49182;50.788;7.318;2023-03-22T01:29:49;100411.28;;;6.22;100.00
43125;BME280;49182;50.788;7.318;2023-03-22T01:32:15;100418.53;;;6.18;100.00
43125;BME280;49182;50.788;7.318;2023-03-22T01:34:42;100410.66;;;6.18;100.00
43125;BME280;49182;50.788;7.318;2023-03-22T01:37:09;100406.59;;;6.14;100.00
43125;BME280;49182;50.788;7.318;2023-03-22T01:39:43;100402.09;;;6.16;100.00
43125;BME280;49182;50.788;7.318;2023-03-22T01:42:13;100397.81;;;6.15;100.00
43125;BME280;49182;50.788;7.318;2023-03-22T01:44:41;100396.91;;;6.27;100.00
43125;BME280;49182;50.788;7.318;2023-03-22T01:47:08;100375.50;;;6.09;100.00
43125;BME280;49182;50.788;7.318;2023-03-22T01:49:36;100397.91;;;6.14;100.00
43125;BME280;49182;50.788;7.318;2023-03-22T01:52:05;100392.56;;;6.15;100.00
43125;BME280;49182;50.788;7.318;2023-03-22T01:54:58;100392.66;;;6.14;100.00
43125;BME280;49182;50.788;7.318;2023-03-22T01:57:38;100387.41;;;6.14;100.00
43125;BME280;49182;50.788;7.318;2023-03-22T02:00:12;100369.97;;;6.01;100.00
43125;BME280;49182;50.788;7.318;2023-03-22T02:02:39;100383.47;;;6.08;100.00
43125;BME280;49182;50.788;7.318;2023-03-22T02:05:18;100379.91;;;6.09;100.00
43125;BME280;49182;50.788;7.318;2023-03-22T02:07:45;100372.59;;;6.01;100.00
43125;BME280;49182;50.788;7.318;2023-03-22T02:10:16;100374.56;;;6.11;100.00
43125;BME280;49182;50.788;7.318;2023-03-22T02:13:05;100378.38;;;6.18;100.00
43125;BME280;49182;50.788;7.318;2023-03-22T02:16:02;100377.97;;;6.11;100.00
43125;BME280;49182;50.788;7.318;2023-03-22T02:18:57;100366.09;;;5.94;100.00
43125;BME280;49182;50.788;7.318;2023-03-22T02:21:55;100348.41;;;5.85;100.00
43125;BME280;49182;50.788;7.318;2023-03-22T02:24:36;100372.13;;;6.07;100.00
43125;BME280;49182;50.788;7.318;2023-03-22T02:27:35;100368.22;;;6.13;100.00
43125;BME280;49182;50.788;7.318;2023-03-22T02:30:24;100350.44;;;6.05;100.00
43125;BME280;49182;50.788;7.318;2023-03-22T02:33:21;100360.59;;;6.10;100.00
43125;BME280;49182;50.788;7.318;2023-03-22T02:36:07;100357.16;;;6.09;100.00
43125;BME280;49182;50.788;7.318;2023-03-22T02:39:03;100348.16;;;6.01;100.00
43125;BME280;49182;50.788;7.318;2023-03-22T02:41:42;100354.53;;;6.09;100.00
43125;BME280;49182;50.788;7.318;2023-03-22T02:44:19;100352.84;;;6.08;100.00
43125;BME280;49182;50.788;7.318;2023-03-22T02:46:54;100316.78;;;5.88;100.00
43125;BME280;49182;50.788;7.318;2023-03-22T02:49:31;100348.50;;;5.96;100.00
43125;BME280;49182;50.788;7.318;2023-03-22T02:52:01;100345.50;;;5.90;100.00
43125;BME280;49182;50.788;7.318;2023-03-22T02:54:35;100348.63;;;5.82;100.00
43125;BME280;49182;50.788;7.318;2023-03-22T02:57:09;100343.91;;;5.87;100.00
43125;BME280;49182;50.788;7.318;2023-03-22T02:59:38;100345.91;;;5.84;100.00
43125;BME280;49182;50.788;7.318;2023-03-22T03:02:08;100333.75;;;5.83;100.00
43125;BME280;49182;50.788;7.318;2023-03-22T03:04:41;100342.66;;;5.80;100.00
43125;BME280;49182;50.788;7.318;2023-03-22T03:07:11;100336.91;;;5.75;100.00
43125;BME280;49182;50.788;7.318;2023-03-22T03:09:41;100342.81;;;5.66;100.00
43125;BME280;49182;50.788;7.318;2023-03-22T03:12:13;100330.56;;;5.66;100.00
43125;BME280;49182;50.788;7.318;2023-03-22T03:14:41;100298.88;;;5.46;100.00
43125;BME280;49182;50.788;7.318;2023-03-22T03:17:21;100314.66;;;5.57;100.00
43125;BME280;49182;50.788;7.318;2023-03-22T03:20:00;100312.28;;;5.54;100.00
43125;BME280;49182;50.788;7.318;2023-03-22T03:22:41;100322.75;;;5.54;100.00
43125;BME280;49182;50.788;7.318;2023-03-22T03:25:17;100297.66;;;5.39;100.00
43125;BME280;49182;50.788;7.318;2023-03-22T03:27:54;100303.81;;;5.38;100.00
43125;BME280;49182;50.788;7.318;2023-03-22T03:30:27;100314.19;;;5.39;100.00
43125;BME280;49182;50.788;7.318;2023-03-22T03:33:00;100312.84;;;5.34;100.00
43125;BME280;49182;50.788;7.318;2023-03-22T03:35:32;100304.56;;;5.40;100.00
43125;BME280;49182;50.788;7.318;2023-03-22T03:38:05;100312.34;;;5.28;100.00
43125;BME280;49182;50.788;7.318;2023-03-22T03:40:37;100304.38;;;5.30;100.00
43125;BME280;49182;50.788;7.318;2023-03-22T03:43:07;100301.78;;;5.30;100.00
43125;BME280;49182;50.788;7.318;2023-03-22T03:45:35;100291.34;;;5.17;100.00
43125;BME280;49182;50.788;7.318;2023-03-22T03:48:06;100303.34;;;5.20;100.00
43125;BME280;49182;50.788;7.318;2023-03-22T03:50:36;100306.38;;;5.26;100.00
43125;BME280;49182;50.788;7.318;2023-03-22T03:53:04;100304.41;;;5.17;100.00
43125;BME280;49182;50.788;7.318;2023-03-22T03:55:31;100295.94;;;5.01;100.00
43125;BME280;49182;50.788;7.318;2023-03-22T03:58:00;100306.22;;;5.04;100.00
43125;BME280;49182;50.788;7.318;2023-03-22T04:00:26;100315.41;;;5.10;100.00
43125;BME280;49182;50.788;7.318;2023-03-22T04:03:16;100302.75;;;5.04;100.00
43125;BME280;49182;50.788;7.318;2023-03-22T04:06:01;100309.16;;;5.00;100.00
43125;BME280;49182;50.788;7.318;2023-03-22T04:08:32;100314.59;;;4.97;100.00
43125;BME280;49182;50.788;7.318;2023-03-22T04:10:59;100306.84;;;4.95;100.00
43125;BME280;49182;50.788;7.318;2023-03-22T04:13:28;100315.84;;;4.91;100.00
43125;BME280;49182;50.788;7.318;2023-03-22T04:15:58;100319.41;;;4.90;100.00
43125;BME280;49182;50.788;7.318;2023-03-22T04:18:24;100322.53;;;4.82;100.00
43125;BME280;49182;50.788;7.318;2023-03-22T04:20:51;100319.06;;;4.82;100.00
43125;BME280;49182;50.788;7.318;2023-03-22T04:23:19;100314.91;;;4.79;100.00
43125;BME280;49182;50.788;7.318;2023-03-22T04:25:46;100324.00;;;4.74;100.00
43125;BME280;49182;50.788;7.318;2023-03-22T04:28:12;100320.03;;;4.68;100.00
43125;BME280;49182;50.788;7.318;2023-03-22T04:30:40;100317.53;;;4.67;100.00
43125;BME280;49182;50.788;7.318;2023-03-22T04:33:26;100321.28;;;4.63;100.00
43125;BME280;49182;50.788;7.318;2023-03-22T04:36:13;100321.81;;;4.55;100.00
43125;BME280;49182;50.788;7.318;2023-03-22T04:38:51;100303.06;;;4.36;100.00
43125;BME280;49182;50.788;7.318;2023-03-22T04:41:21;100326.59;;;4.48;100.00
43125;BME280;49182;50.788;7.318;2023-03-22T04:43:51;100333.19;;;4.41;100.00
43125;BME280;49182;50.788;7.318;2023-03-22T04:46:19;100335.19;;;4.38;100.00
43125;BME280;49182;50.788;7.318;2023-03-22T04:48:51;100304.78;;;4.10;100.00
43125;BME280;49182;50.788;7.318;2023-03-22T04:51:19;100333.59;;;4.35;100.00
43125;BME280;49182;50.788;7.318;2023-03-22T04:54:11;100246.44;;;3.84;100.00
43125;BME280;49182;50.788;7.318;2023-03-22T04:56:40;100320.00;;;4.30;100.00
43125;BME280;49182;50.788;7.318;2023-03-22T04:59:06;100317.28;;;4.32;100.00
43125;BME280;49182;50.788;7.318;2023-03-22T05:01:34;100319.06;;;4.31;100.00
43125;BME280;49182;50.788;7.318;2023-03-22T05:04:15;100319.25;;;4.28;100.00
43125;BME280;49182;50.788;7.318;2023-03-22T05:06:43;100311.50;;;4.27;100.00
43125;BME280;49182;50.788;7.318;2023-03-22T05:09:16;100291.81;;;4.08;100.00
43125;BME280;49182;50.788;7.318;2023-03-22T05:11:44;100309.50;;;4.18;100.00
43125;BME280;49182;50.788;7.318;2023-03-22T05:14:23;100298.97;;;4.19;100.00
43125;BME280;49182;50.788;7.318;2023-03-22T05:16:52;100295.72;;;4.16;100.00
43125;BME280;49182;50.788;7.318;2023-03-22T05:19:19;100301.88;;;4.15;100.00
43125;BME280;49182;50.788;7.318;2023-03-22T05:21:47;100286.50;;;4.10;100.00
43125;BME280;49182;50.788;7.318;2023-03-22T05:24:14;100313.16;;;4.15;100.00
43125;BME280;49182;50.788;7.318;2023-03-22T05:26:45;100301.56;;;4.06;100.00
43125;BME280;49182;50.788;7.318;2023-03-22T05:29:12;100310.53;;;4.15;100.00
43125;BME280;49182;50.788;7.318;2023-03-22T05:32:01;100313.25;;;4.14;100.00
43125;BME280;49182;50.788;7.318;2023-03-22T05:34:28;100301.88;;;4.15;100.00
43125;BME280;49182;50.788;7.318;2023-03-22T05:36:55;100300.84;;;4.17;100.00
43125;BME280;49182;50.788;7.318;2023-03-22T05:39:28;100300.31;;;4.12;100.00
43125;BME280;49182;50.788;7.318;2023-03-22T05:41:56;100300.53;;;4.22;100.00
43125;BME280;49182;50.788;7.318;2023-03-22T05:44:23;100299.06;;;4.18;100.00
43125;BME280;49182;50.788;7.318;2023-03-22T05:47:00;100291.31;;;4.16;100.00
43125;BME280;49182;50.788;7.318;2023-03-22T05:49:37;100288.81;;;4.15;100.00
43125;BME280;49182;50.788;7.318;2023-03-22T05:52:05;100293.00;;;4.17;100.00
43125;BME280;49182;50.788;7.318;2023-03-22T05:54:56;100282.31;;;4.20;100.00
43125;BME280;49182;50.788;7.318;2023-03-22T05:57:23;100288.63;;;4.18;100.00
43125;BME280;49182;50.788;7.318;2023-03-22T05:59:49;100292.59;;;4.23;100.00
43125;BME280;49182;50.788;7.318;2023-03-22T06:02:24;100293.13;;;4.28;100.00
43125;BME280;49182;50.788;7.318;2023-03-22T06:04:51;100306.09;;;4.30;100.00
43125;BME280;49182;50.788;7.318;2023-03-22T06:07:19;100306.31;;;4.39;100.00
43125;BME280;49182;50.788;7.318;2023-03-22T06:09:50;100310.59;;;4.53;100.00
43125;BME280;49182;50.788;7.318;2023-03-22T06:12:21;100304.78;;;4.62;100.00
43125;BME280;49182;50.788;7.318;2023-03-22T06:14:51;100310.72;;;4.77;100.00
43125;BME280;49182;50.788;7.318;2023-03-22T06:17:30;100293.47;;;4.87;100.00
43125;BME280;49182;50.788;7.318;2023-03-22T06:19:57;100305.38;;;5.04;100.00
43125;BME280;49182;50.788;7.318;2023-03-22T06:22:23;100298.53;;;5.14;100.00
43125;BME280;49182;50.788;7.318;2023-03-22T06:24:51;100309.94;;;5.25;100.00
43125;BME280;49182;50.788;7.318;2023-03-22T06:27:27;100304.91;;;5.35;100.00
43125;BME280;49182;50.788;7.318;2023-03-22T06:29:54;100305.25;;;5.54;100.00
43125;BME280;49182;50.788;7.318;2023-03-22T06:32:24;100280.97;;;5.52;100.00
43125;BME280;49182;50.788;7.318;2023-03-22T06:34:52;100299.19;;;5.78;100.00
43125;BME280;49182;50.788;7.318;2023-03-22T06:37:21;100298.84;;;5.82;100.00
43125;BME280;49182;50.788;7.318;2023-03-22T06:39:48;100308.25;;;5.97;100.00
43125;BME280;49182;50.788;7.318;2023-03-22T06:42:15;100310.91;;;6.08;100.00
43125;BME280;49182;50.788;7.318;2023-03-22T06:44:46;100303.34;;;6.17;100.00
43125;BME280;49182;50.788;7.318;2023-03-22T06:47:24;100304.19;;;6.28;100.00
43125;BME280;49182;50.788;7.318;2023-03-22T06:50:12;100280.22;;;6.22;100.00
43125;BME280;49182;50.788;7.318;2023-03-22T06:52:59;100308.75;;;6.48;100.00
43125;BME280;49182;50.788;7.318;2023-03-22T06:55:26;100310.81;;;6.56;100.00
43125;BME280;49182;50.788;7.318;2023-03-22T06:57:53;100317.88;;;6.67;100.00
43125;BME280;49182;50.788;7.318;2023-03-22T07:00:21;100311.81;;;6.77;100.00
43125;BME280;49182;50.788;7.318;2023-03-22T07:02:47;100310.16;;;6.87;100.00
43125;BME280;49182;50.788;7.318;2023-03-22T07:05:27;100294.53;;;6.97;100.00
43125;BME280;49182;50.788;7.318;2023-03-22T07:07:54;100306.34;;;7.14;100.00
43125;BME280;49182;50.788;7.318;2023-03-22T07:10:21;100263.63;;;7.01;100.00
43125;BME280;49182;50.788;7.318;2023-03-22T07:12:49;100311.09;;;7.42;100.00
43125;BME280;49182;50.788;7.318;2023-03-22T07:15:16;100301.38;;;7.54;100.00
43125;BME280;49182;50.788;7.318;2023-03-22T07:18:06;100298.13;;;7.72;100.00
43125;BME280;49182;50.788;7.318;2023-03-22T07:20:34;100297.84;;;7.87;100.00
43125;BME280;49182;50.788;7.318;2023-03-22T07:23:01;100292.88;;;8.04;100.00
43125;BME280;49182;50.788;7.318;2023-03-22T07:25:32;100292.97;;;8.14;100.00
43125;BME280;49182;50.788;7.318;2023-03-22T07:28:12;100292.06;;;8.25;100.00
43125;BME280;49182;50.788;7.318;2023-03-22T07:30:40;100278.78;;;8.37;100.00
43125;BME280;49182;50.788;7.318;2023-03-22T07:33:08;100290.06;;;8.49;100.00
43125;BME280;49182;50.788;7.318;2023-03-22T07:35:38;100278.94;;;8.66;100.00
43125;BME280;49182;50.788;7.318;2023-03-22T07:38:05;100257.22;;;8.74;100.00
43125;BME280;49182;50.788;7.318;2023-03-22T07:40:32;100241.44;;;8.74;100.00
43125;BME280;49182;50.788;7.318;2023-03-22T07:42:59;100261.25;;;9.08;100.00
43125;BME280;49182;50.788;7.318;2023-03-22T07:45:47;100261.06;;;9.40;100.00
43125;BME280;49182;50.788;7.318;2023-03-22T07:48:32;100217.66;;;9.34;100.00
43125;BME280;49182;50.788;7.318;2023-03-22T07:51:32;100263.91;;;9.67;100.00
43125;BME280;49182;50.788;7.318;2023-03-22T07:53:59;100253.63;;;9.74;100.00
43125;BME280;49182;50.788;7.318;2023-03-22T07:56:26;100254.44;;;9.94;100.00
43125;BME280;49182;50.788;7.318;2023-03-22T07:58:53;100247.25;;;10.05;100.00
43125;BME280;49182;50.788;7.318;2023-03-22T08:01:20;100251.00;;;10.22;100.00
43125;BME280;49182;50.788;7.318;2023-03-22T08:04:06;100230.31;;;10.27;100.00
43125;BME280;49182;50.788;7.318;2023-03-22T08:07:03;100236.81;;;10.42;100.00
43125;BME280;49182;50.788;7.318;2023-03-22T08:09:30;100239.81;;;10.57;100.00
43125;BME280;49182;50.788;7.318;2023-03-22T08:11:57;100232.41;;;10.70;95.75
43125;BME280;49182;50.788;7.318;2023-03-22T08:14:24;100226.94;;;10.81;93.76
43125;BME280;49182;50.788;7.318;2023-03-22T08:17:04;100225.78;;;10.93;94.38
43125;BME280;49182;50.788;7.318;2023-03-22T08:19:31;100236.72;;;10.99;82.99
43125;BME280;49182;50.788;7.318;2023-03-22T08:21:59;100221.38;;;11.12;80.40
43125;BME280;49182;50.788;7.318;2023-03-22T08:24:49;100224.44;;;11.17;78.12
43125;BME280;49182;50.788;7.318;2023-03-22T08:27:25;100208.03;;;11.13;73.55
43125;BME280;49182;50.788;7.318;2023-03-22T08:29:53;100238.94;;;11.30;74.79
43125;BME280;49182;50.788;7.318;2023-03-22T08:32:20;100205.19;;;11.24;72.96
43125;BME280;49182;50.788;7.318;2023-03-22T08:34:47;100227.72;;;11.46;74.20
43125;BME280;49182;50.788;7.318;2023-03-22T08:37:13;100217.44;;;11.43;74.20
43125;BME280;49182;50.788;7.318;2023-03-22T08:39:43;100218.75;;;11.57;69.25
43125;BME280;49182;50.788;7.318;2023-03-22T08:42:23;100229.88;;;11.96;69.04
43125;BME280;49182;50.788;7.318;2023-03-22T08:44:50;100228.03;;;12.14;69.33
43125;BME280;49182;50.788;7.318;2023-03-22T08:47:18;100228.47;;;12.27;69.16
43125;BME280;49182;50.788;7.318;2023-03-22T08:49:48;100238.13;;;12.36;67.20
43125;BME280;49182;50.788;7.318;2023-03-22T08:52:21;100233.47;;;12.56;67.14
43125;BME280;49182;50.788;7.318;2023-03-22T08:54:55;100235.19;;;12.65;65.23
43125;BME280;49182;50.788;7.318;2023-03-22T08:57:42;100234.72;;;12.70;66.29
43125;BME280;49182;50.788;7.318;2023-03-22T09:00:25;100224.38;;;12.59;63.44
43125;BME280;49182;50.788;7.318;2023-03-22T09:03:00;100240.47;;;12.65;63.71
43125;BME280;49182;50.788;7.318;2023-03-22T09:05:26;100236.31;;;12.88;64.94
43125;BME280;49182;50.788;7.318;2023-03-22T09:07:53;100232.03;;;12.95;62.04
43125;BME280;49182;50.788;7.318;2023-03-22T09:10:33;100249.63;;;13.05;61.77
43125;BME280;49182;50.788;7.318;2023-03-22T09:13:04;100237.13;;;13.23;62.21
43125;BME280;49182;50.788;7.318;2023-03-22T09:15:32;100229.88;;;13.41;62.43
43125;BME280;49182;50.788;7.318;2023-03-22T09:18:13;100217.16;;;13.45;60.09
43125;BME280;49182;50.788;7.318;2023-03-22T09:20:44;100196.28;;;13.50;60.05
43125;BME280;49182;50.788;7.318;2023-03-22T09:23:12;100215.69;;;13.74;59.25
43125;BME280;49182;50.788;7.318;2023-03-22T09:25:41;100225.50;;;13.98;60.35
43125;BME280;49182;50.788;7.318;2023-03-22T09:28:09;100208.09;;;14.12;57.78
43125;BME280;49182;50.788;7.318;2023-03-22T09:30:36;100195.94;;;14.01;58.74
43125;BME280;49182;50.788;7.318;2023-03-22T09:33:06;100207.56;;;14.08;57.71
43125;BME280;49182;50.788;7.318;2023-03-22T09:35:34;100204.91;;;14.16;57.52
43125;BME280;49182;50.788;7.318;2023-03-22T09:38:07;100224.81;;;14.21;56.85
43125;BME280;49182;50.788;7.318;2023-03-22T09:40:38;100212.06;;;14.16;56.51
43125;BME280;49182;50.788;7.318;2023-03-22T09:43:12;100223.16;;;14.19;56.77
43125;BME280;49182;50.788;7.318;2023-03-22T09:45:43;100187.00;;;13.86;55.84
43125;BME280;49182;50.788;7.318;2023-03-22T09:48:15;100195.94;;;14.01;56.39
43125;BME280;49182;50.788;7.318;2023-03-22T09:50:46;100210.25;;;13.92;56.07
43125;BME280;49182;50.788;7.318;2023-03-22T09:53:15;100205.91;;;13.91;55.82
43125;BME280;49182;50.788;7.318;2023-03-22T09:55:45;100219.72;;;13.95;56.03
43125;BME280;49182;50.788;7.318;2023-03-22T09:58:23;100202.28;;;13.92;56.76
43125;BME280;49182;50.788;7.318;2023-03-22T10:00:55;100192.97;;;13.80;55.35
43125;BME280;49182;50.788;7.318;2023-03-22T10:03:33;100202.94;;;14.02;54.67
43125;BME280;49182;50.788;7.318;2023-03-22T10:06:06;100196.16;;;14.00;54.68
43125;BME280;49182;50.788;7.318;2023-03-22T10:08:49;100133.44;;;13.66;55.42
43125;BME280;49182;50.788;7.318;2023-03-22T10:11:23;100158.16;;;13.91;54.45
43125;BME280;49182;50.788;7.318;2023-03-22T10:14:02;100198.94;;;14.39;55.48
43125;BME280;49182;50.788;7.318;2023-03-22T10:16:35;100188.63;;;14.36;54.08
43125;BME280;49182;50.788;7.318;2023-03-22T10:19:04;100195.44;;;14.54;54.48
43125;BME280;49182;50.788;7.318;2023-03-22T10:21:33;100194.09;;;14.50;54.04
43125;BME280;49182;50.788;7.318;2023-03-22T10:24:05;100176.53;;;14.41;54.89
43125;BME280;49182;50.788;7.318;2023-03-22T10:26:38;100188.94;;;14.33;53.31
43125;BME280;49182;50.788;7.318;2023-03-22T10:29:24;100146.97;;;14.20;53.09
43125;BME280;49182;50.788;7.318;2023-03-22T10:32:08;100196.88;;;14.65;53.68
43125;BME280;49182;50.788;7.318;2023-03-22T10:34:37;100186.63;;;14.62;54.08
43125;BME280;49182;50.788;7.318;2023-03-22T10:37:04;100184.59;;;14.64;54.42
43125;BME280;49182;50.788;7.318;2023-03-22T10:39:38;100177.63;;;14.63;53.07
43125;BME280;49182;50.788;7.318;2023-03-22T10:42:11;100183.81;;;14.94;53.54
43125;BME280;49182;50.788;7.318;2023-03-22T10:44:45;100152.59;;;14.88;53.34
43125;BME280;49182;50.788;7.318;2023-03-22T10:47:14;100128.09;;;14.70;52.26
43125;BME280;49182;50.788;7.318;2023-03-22T10:49:46;100182.19;;;15.24;53.19
43125;BME280;49182;50.788;7.318;2023-03-22T10:52:29;100183.03;;;15.48;51.94
43125;BME280;49182;50.788;7.318;2023-03-22T10:54:59;100189.47;;;15.61;52.26
43125;BME280;49182;50.788;7.318;2023-03-22T10:57:30;100200.59;;;15.65;52.32
43125;BME280;49182;50.788;7.318;2023-03-22T10:59:58;100190.81;;;15.49;51.23
43125;BME280;49182;50.788;7.318;2023-03-22T11:02:26;100189.66;;;15.52;50.75
43125;BME280;49182;50.788;7.318;2023-03-22T11:04:54;100183.69;;;15.50;50.74
43125;BME280;49182;50.788;7.318;2023-03-22T11:07:31;100178.88;;;15.53;50.56
43125;BME280;49182;50.788;7.318;2023-03-22T11:10:10;100151.88;;;15.33;49.83
43125;BME280;49182;50.788;7.318;2023-03-22T11:12:41;100169.75;;;15.48;51.08
43125;BME280;49182;50.788;7.318;2023-03-22T11:15:19;100183.66;;;15.58;50.98
43125;BME280;49182;50.788;7.318;2023-03-22T11:17:48;100185.50;;;15.57;49.30
43125;BME280;49182;50.788;7.318;2023-03-22T11:20:16;100185.13;;;15.83;50.22
43125;BME280;49182;50.788;7.318;2023-03-22T11:22:44;100191.59;;;15.89;49.27
43125;BME280;49182;50.788;7.318;2023-03-22T11:25:14;100187.22;;;15.73;48.88
43125;BME280;49182;50.788;7.318;2023-03-22T11:27:50;100196.34;;;15.78;50.39
43125;BME280;49182;50.788;7.318;2023-03-22T11:30:21;100185.69;;;15.78;48.86
43125;BME280;49182;50.788;7.318;2023-03-22T11:32:48;100191.47;;;15.82;49.32
43125;BME280;49182;50.788;7.318;2023-03-22T11:35:25;100183.63;;;15.66;48.33
43125;BME280;49182;50.788;7.318;2023-03-22T11:37:53;100177.59;;;15.72;48.95
43125;BME280;49182;50.788;7.318;2023-03-22T11:40:22;100170.72;;;15.77;48.58
43125;BME280;49182;50.788;7.318;2023-03-22T11:42:52;100131.22;;;15.66;49.77
43125;BME280;49182;50.788;7.318;2023-03-22T11:45:24;100172.38;;;15.78;47.53
43125;BME280;49182;50.788;7.318;2023-03-22T11:47:52;100161.00;;;15.62;48.21
43125;BME280;49182;50.788;7.318;2023-03-22T11:50:25;100164.75;;;15.53;47.92
43125;BME280;49182;50.788;7.318;2023-03-22T11:52:53;100160.91;;;15.55;47.73
43125;BME280;49182;50.788;7.318;2023-03-22T11:55:20;100177.16;;;15.60;47.82
43125;BME280;49182;50.788;7.318;2023-03-22T11:57:46;100176.50;;;15.58;49.08
43125;BME280;49182;50.788;7.318;2023-03-22T12:00:17;100178.00;;;15.61;48.64
43125;BME280;49182;50.788;7.318;2023-03-22T12:02:49;100188.09;;;15.65;48.01
43125;BME280;49182;50.788;7.318;2023-03-22T12:05:20;100178.34;;;15.58;48.57
43125;BME280;49182;50.788;7.318;2023-03-22T12:07:51;100180.28;;;15.64;48.78
43125;BME280;49182;50.788;7.318;2023-03-22T12:10:23;100177.81;;;15.62;48.38
43125;BME280;49182;50.788;7.318;2023-03-22T12:12:54;100188.00;;;15.51;46.52
43125;BME280;49182;50.788;7.318;2023-03-22T12:15:22;100179.06;;;15.44;47.20
43125;BME280;49182;50.788;7.318;2023-03-22T12:17:55;100167.25;;;15.46;48.04
43125;BME280;49182;50.788;7.318;2023-03-22T12:20:31;100166.28;;;15.70;47.90
43125;BME280;49182;50.788;7.318;2023-03-22T12:23:01;100159.94;;;15.71;47.44
43125;BME280;49182;50.788;7.318;2023-03-22T12:25:31;100174.84;;;15.57;47.21
43125;BME280;49182;50.788;7.318;2023-03-22T12:28:00;100163.81;;;15.37;47.32
43125;BME280;49182;50.788;7.318;2023-03-22T12:30:30;100160.75;;;15.49;48.52
43125;BME280;49182;50.788;7.318;2023-03-22T12:33:03;100158.91;;;15.49;48.09
43125;BME280;49182;50.788;7.318;2023-03-22T12:35:33;100163.56;;;15.55;48.22
43125;BME280;49182;50.788;7.318;2023-03-22T12:38:21;100168.81;;;15.63;49.37
43125;BME280;49182;50.788;7.318;2023-03-22T12:40:49;100169.66;;;15.64;48.74
43125;BME280;49182;50.788;7.318;2023-03-22T12:43:32;100173.56;;;15.53;48.06
43125;BME280;49182;50.788;7.318;2023-03-22T12:46:00;100172.63;;;15.38;47.93
43125;BME280;49182;50.788;7.318;2023-03-22T12:48:35;100171.03;;;15.29;49.17
43125;BME280;49182;50.788;7.318;2023-03-22T12:51:05;100152.72;;;15.03;48.02
43125;BME280;49182;50.788;7.318;2023-03-22T12:53:33;100175.00;;;15.25;48.85
43125;BME280;49182;50.788;7.318;2023-03-22T12:56:01;100161.00;;;15.08;48.39
43125;BME280;49182;50.788;7.318;2023-03-22T12:58:28;100159.63;;;15.12;48.60
43125;BME280;49182;50.788;7.318;2023-03-22T13:00:56;100160.28;;;14.83;48.19
43125;BME280;49182;50.788;7.318;2023-03-22T13:03:26;100165.88;;;14.96;48.78
43125;BME280;49182;50.788;7.318;2023-03-22T13:06:04;100167.41;;;14.91;48.90
43125;BME280;49182;50.788;7.318;2023-03-22T13:09:08;100172.53;;;14.92;49.46
43125;BME280;49182;50.788;7.318;2023-03-22T13:11:36;100188.84;;;14.81;49.02
43125;BME280;49182;50.788;7.318;2023-03-22T13:14:02;100176.47;;;14.66;50.08
43125;BME280;49182;50.788;7.318;2023-03-22T13:16:49;100158.41;;;14.53;50.24